Dades de l'estació automàtica el Montmell
Resum diari
21:00 TU| Temperatura mitjana | 14.7 °C | |
|---|---|---|
| Temperatura màxima | 23.7 °C | 11:26 TU |
| Temperatura mínima | 9.9 °C | 20:41 TU |
| Humitat relativa mitjana | 86% | |
| Precipitació acumulada | 8.6 mm | |
| Ratxa màxima del vent (6 m) | 30.6 km/h - 284º | 19:04 TU |
| Irradiació solar global | 12.4 MJ/m2 | |
El tram horari està expressat en Temps Universal (TU). Cal sumar una hora en horari d'hivern i dues en horari d'estiu per passar a l'hora oficial.
el Montmell
| Municipi | El Montmell |
|---|---|
| Comarca | Baix Penedès |
| Altitud | 547 m |
| Data alta | 13.07.1995 |
| Estat actual | Operativa |
| Període TU |
TM °C |
TX °C |
TN °C |
HRM % |
PPT mm |
VVM (6 m) km/h |
DVM (6 m) graus |
VVX (6 m) km/h |
RS W/m2 |
|---|---|---|---|---|---|---|---|---|---|
| 00:00 - 00:30 | 11.7 | 11.8 | 11.7 | 98 | 0.0 | 1.1 | 143 | 4.0 | 0 |
| 00:30 - 01:00 | 11.9 | 11.9 | 11.8 | 98 | 0.0 | 1.1 | 154 | 4.7 | 0 |
| 01:00 - 01:30 | 12.0 | 12.1 | 11.9 | 98 | 0.0 | 0.7 | 126 | 3.2 | 0 |
| 01:30 - 02:00 | 11.9 | 12.0 | 11.9 | 98 | 0.0 | 0.7 | 135 | 3.2 | 0 |
| 02:00 - 02:30 | 11.9 | 11.9 | 11.9 | 98 | 0.0 | 1.4 | 70 | 6.1 | 0 |
| 02:30 - 03:00 | 11.9 | 12.0 | 11.9 | 98 | 0.0 | 1.4 | 90 | 5.8 | 0 |
| 03:00 - 03:30 | 12.0 | 12.1 | 12.0 | 98 | 0.0 | 1.1 | 17 | 4.7 | 0 |
| 03:30 - 04:00 | 12.1 | 12.2 | 12.1 | 98 | 0.0 | 0.4 | 85 | 2.2 | 0 |
| 04:00 - 04:30 | 12.0 | 12.1 | 12.0 | 98 | 0.0 | 1.1 | 67 | 3.6 | 0 |
| 04:30 - 05:00 | 11.9 | 12.0 | 11.8 | 98 | 0.0 | 1.1 | 123 | 5.0 | 2 |
| 05:00 - 05:30 | 12.0 | 12.1 | 11.9 | 98 | 0.0 | 1.4 | 45 | 5.0 | 11 |
| 05:30 - 06:00 | 12.6 | 13.2 | 12.1 | 96 | 0.0 | 1.4 | 52 | 4.7 | 96 |
| 06:00 - 06:30 | 13.9 | 14.3 | 13.2 | 90 | 0.0 | 1.8 | 70 | 4.7 | 143 |
| 06:30 - 07:00 | 14.2 | 15.5 | 13.7 | 88 | 0.0 | 2.2 | 45 | 5.8 | 239 |
| 07:00 - 07:30 | 15.3 | 15.8 | 14.8 | 81 | 0.0 | 2.9 | 78 | 8.6 | 218 |
| 07:30 - 08:00 | 15.5 | 16.1 | 15.1 | 80 | 0.0 | 2.5 | 52 | 6.8 | 221 |
| 08:00 - 08:30 | 16.5 | 17.6 | 15.1 | 75 | 0.0 | 3.2 | 340 | 16.6 | 433 |
| 08:30 - 09:00 | 17.9 | 19.2 | 17.0 | 70 | 0.0 | 3.6 | 47 | 13.0 | 601 |
| 09:00 - 09:30 | 20.4 | 21.7 | 19.1 | 63 | 0.0 | 5.0 | 181 | 14.0 | 662 |
| 09:30 - 10:00 | 19.1 | 20.4 | 18.4 | 68 | 0.0 | 7.6 | 190 | 18.4 | 331 |
| 10:00 - 10:30 | 19.2 | 19.5 | 18.7 | 69 | 0.0 | 7.2 | 173 | 17.3 | 363 |
| 10:30 - 11:00 | 19.3 | 20.1 | 18.8 | 72 | 0.0 | 7.9 | 169 | 17.3 | 448 |
| 11:00 - 11:30 | 21.4 | 23.7 | 19.1 | 66 | 0.0 | 7.9 | 163 | 20.5 | 810 |
| 11:30 - 12:00 | 19.6 | 22.6 | 17.8 | 70 | 0.0 | 10.1 | 174 | 23.4 | 371 |
| 12:00 - 12:30 | 16.6 | 17.8 | 15.8 | 81 | 0.0 | 9.7 | 176 | 19.8 | 155 |
| 12:30 - 13:00 | 16.5 | 17.2 | 15.9 | 84 | 0.0 | 5.0 | 182 | 14.4 | 184 |
| 13:00 - 13:30 | 15.5 | 16.0 | 14.9 | 88 | 0.0 | 5.0 | 198 | 15.1 | 135 |
| 13:30 - 14:00 | 15.7 | 16.4 | 15.3 | 86 | 0.0 | 3.2 | 199 | 9.4 | 151 |
| 14:00 - 14:30 | 16.3 | 17.0 | 15.7 | 83 | 0.0 | 3.2 | 163 | 9.4 | 168 |
| 14:30 - 15:00 | 17.5 | 17.8 | 17.1 | 78 | 0.0 | 4.7 | 162 | 13.3 | 245 |
| 15:00 - 15:30 | 17.3 | 19.2 | 16.4 | 77 | 0.0 | 4.7 | 168 | 11.5 | 278 |
| 15:30 - 16:00 | 17.8 | 19.2 | 16.8 | 74 | 0.0 | 4.7 | 160 | 12.2 | 200 |
| 16:00 - 16:30 | 16.1 | 16.8 | 15.8 | 80 | 0.0 | 5.0 | 180 | 11.2 | 119 |
| 16:30 - 17:00 | 15.8 | 16.0 | 15.7 | 81 | 0.0 | 4.3 | 171 | 13.0 | 92 |
| 17:00 - 17:30 | 16.3 | 16.9 | 15.6 | 79 | 0.0 | 5.0 | 193 | 13.0 | 154 |
| 17:30 - 18:00 | 15.0 | 15.6 | 14.5 | 84 | 0.0 | 7.2 | 213 | 15.5 | 46 |
| 18:00 - 18:30 | 14.4 | 14.5 | 14.3 | 90 | 0.0 | 7.9 | 218 | 14.0 | 4 |
| 18:30 - 19:00 | 13.7 | 14.3 | 11.9 | 94 | 5.8 | 9.4 | 221 | 29.5 | 2 |
| 19:00 - 19:30 | 11.2 | 12.0 | 10.8 | 99 | 2.7 | 8.3 | 303 | 30.6 | 1 |
| 19:30 - 20:00 | 10.5 | 10.7 | 10.3 | 99 | 0.1 | 5.0 | 318 | 18.7 | 0 |
| 20:00 - 20:30 | 10.4 | 10.5 | 10.2 | 96 | 0.0 | 5.8 | 350 | 15.8 | 1 |
| 20:30 - 21:00 | 10.0 | 10.2 | 9.9 | 96 | 0.0 | 5.0 | 294 | 10.1 | 0 |
| 21:00 - 21:30 | 10.2 | 10.5 | 10.0 | 92 | 0.0 | 6.8 | 281 | 12.6 | 0 |
| 21:30 - 22:00 | (s/d) | (s/d) | (s/d) | (s/d) | (s/d) | (s/d) | (s/d) | (s/d) | (s/d) |
| 22:00 - 22:30 | (s/d) | (s/d) | (s/d) | (s/d) | (s/d) | (s/d) | (s/d) | (s/d) | (s/d) |
Les dades en taronja només han passat un control de qualitat automàtic. Resta pendent la seva validació definitiva.